Time;durP1;ratioP1;P1;durP2;ratioP2;P2;SDS_P1;SDS_P2;PMS_P1;PMS_P2;Temp;Humidity;BMP_temperature;BMP_pressure;BME280_temperature;BME280_humidity;BME280_pressure;Samples;Min_cycle;Max_cycle;Signal;HPM_P1;HPM_P2
2023/05/10 00:00:17;;;;;;;4.50;3.20;;;14.00;99.90;;;;;;5008576;28;20060;-80
2023/05/10 00:02:42;;;;;;;3.28;2.03;;;14.00;99.90;;;;;;5027518;28;20036;-80
2023/05/10 00:05:08;;;;;;;5.30;2.90;;;14.00;99.90;;;;;;5024196;28;20053;-80
2023/05/10 00:07:34;;;;;;;2.42;1.83;;;13.90;99.90;;;;;;5038577;28;20040;-80
2023/05/10 00:09:59;;;;;;;4.85;2.90;;;13.90;99.90;;;;;;5026697;28;20051;-80
2023/05/10 00:12:25;;;;;;;4.00;2.88;;;13.90;99.90;;;;;;5008009;28;20029;-79
2023/05/10 00:14:50;;;;;;;6.65;3.22;;;13.90;99.90;;;;;;5025358;28;20079;-79
2023/05/10 00:17:16;;;;;;;2.22;1.85;;;14.10;99.90;;;;;;5010414;28;20025;-79
2023/05/10 00:19:41;;;;;;;4.88;3.78;;;14.00;99.90;;;;;;5027162;28;20082;-79
2023/05/10 00:22:07;;;;;;;4.90;3.05;;;13.90;99.90;;;;;;5027524;28;20299;-79
2023/05/10 00:24:32;;;;;;;5.88;3.70;;;13.90;99.90;;;;;;5026187;28;20112;-79
2023/05/10 00:26:58;;;;;;;6.57;4.32;;;13.90;99.90;;;;;;5026538;28;20060;-79
2023/05/10 00:29:24;;;;;;;5.60;3.88;;;13.90;99.90;;;;;;5043598;28;20033;-79
2023/05/10 00:31:49;;;;;;;5.15;4.25;;;13.80;99.90;;;;;;5026763;28;20033;-79
2023/05/10 00:34:15;;;;;;;7.15;5.28;;;13.80;99.90;;;;;;5037351;28;20040;-79
2023/05/10 00:36:40;;;;;;;5.55;3.00;;;13.70;99.90;;;;;;5024267;28;20041;-79
2023/05/10 00:39:06;;;;;;;6.68;5.90;;;13.80;99.90;;;;;;5025319;28;20032;-79
2023/05/10 00:41:32;;;;;;;5.30;4.40;;;13.80;99.90;;;;;;5026235;28;20039;-80
2023/05/10 00:43:58;;;;;;;4.50;3.70;;;13.80;99.90;;;;;;5024609;28;20059;-79
2023/05/10 00:46:23;;;;;;;8.50;7.28;;;13.80;99.90;;;;;;5009130;28;20048;-79
2023/05/10 00:48:49;;;;;;;4.32;3.92;;;13.80;99.90;;;;;;5023401;28;20056;-79
2023/05/10 00:51:14;;;;;;;8.43;5.65;;;13.80;99.90;;;;;;5025688;28;20056;-79
2023/05/10 00:53:40;;;;;;;5.45;3.80;;;13.80;99.90;;;;;;5024965;28;20140;-79
2023/05/10 00:56:06;;;;;;;5.22;3.88;;;13.80;99.90;;;;;;5007043;28;20041;-79
2023/05/10 00:58:32;;;;;;;7.13;5.57;;;13.80;99.90;;;;;;5023520;28;20022;-80
2023/05/10 01:00:57;;;;;;;9.35;7.35;;;13.80;99.90;;;;;;5025611;28;20107;-79
2023/05/10 01:03:23;;;;;;;8.10;6.93;;;13.70;99.90;;;;;;5025592;28;20025;-79
2023/05/10 01:05:48;;;;;;;10.95;7.78;;;13.70;99.90;;;;;;5024689;28;20033;-79
2023/05/10 01:08:14;;;;;;;8.18;7.15;;;13.60;99.90;;;;;;5024509;28;20041;-79
2023/05/10 01:10:40;;;;;;;7.10;6.18;;;13.60;99.90;;;;;;5026016;28;20037;-79
2023/05/10 01:13:05;;;;;;;10.55;9.13;;;13.60;99.90;;;;;;5026436;28;20109;-80
2023/05/10 01:15:31;;;;;;;10.02;8.32;;;13.60;99.90;;;;;;5008169;28;20087;-79
2023/05/10 01:17:56;;;;;;;9.65;7.03;;;13.60;99.90;;;;;;5022947;28;20038;-79
2023/05/10 01:20:22;;;;;;;7.00;5.97;;;13.60;99.90;;;;;;5044111;28;20025;-79
2023/05/10 01:23:24;;;;;;;8.90;7.32;;;13.50;99.90;;;;;;5023489;28;20021;-79
2023/05/10 01:26:05;;;;;;;7.95;5.75;;;13.60;99.90;;;;;;5024353;28;20124;-80
2023/05/10 01:28:33;;;;;;;10.95;7.20;;;13.60;99.90;;;;;;5041264;28;20063;-79
2023/05/10 01:31:18;;;;;;;10.68;6.93;;;13.60;99.90;;;;;;5043259;28;20374;-79
2023/05/10 01:33:59;;;;;;;8.57;6.35;;;13.50;99.90;;;;;;5004198;28;20432;-79
2023/05/10 01:36:35;;;;;;;8.75;6.93;;;13.50;99.90;;;;;;5019355;28;20493;-79
2023/05/10 01:39:25;;;;;;;10.80;7.85;;;13.40;99.90;;;;;;5024942;28;20500;-79
2023/05/10 01:42:06;;;;;;;8.93;6.50;;;13.40;99.90;;;;;;5040897;28;20385;-79
2023/05/10 01:44:35;;;;;;;10.00;6.95;;;13.40;99.90;;;;;;5042889;28;20556;-79
2023/05/10 01:47:08;;;;;;;9.73;7.15;;;13.40;99.90;;;;;;5017378;28;20125;-79
2023/05/10 01:49:40;;;;;;;10.75;7.90;;;13.30;99.90;;;;;;5040323;28;20493;-79
2023/05/10 01:52:10;;;;;;;11.50;8.07;;;13.30;99.90;;;;;;5026664;28;20037;-79
2023/05/10 01:54:38;;;;;;;11.77;8.35;;;13.30;99.90;;;;;;5014744;28;20657;-79
2023/05/10 01:57:05;;;;;;;13.57;9.35;;;13.30;99.90;;;;;;5006024;28;20158;-79
2023/05/10 01:59:36;;;;;;;10.73;7.57;;;13.30;99.90;;;;;;5025014;28;20456;-79
2023/05/10 02:02:01;;;;;;;12.75;8.82;;;13.30;99.90;;;;;;5025865;28;20037;-79
2023/05/10 02:04:27;;;;;;;17.27;8.95;;;13.30;99.90;;;;;;5026540;28;20504;-80
2023/05/10 02:06:53;;;;;;;18.73;11.38;;;13.30;99.90;;;;;;5023035;28;20091;-79
2023/05/10 02:09:18;;;;;;;11.07;7.18;;;13.20;99.90;;;;;;5042909;28;20120;-79
2023/05/10 02:11:44;;;;;;;19.95;12.63;;;13.20;99.90;;;;;;5024382;28;20457;-79
2023/05/10 02:14:09;;;;;;;13.77;8.70;;;13.20;99.90;;;;;;5008236;28;20047;-79
2023/05/10 02:16:35;;;;;;;19.75;10.68;;;13.10;99.90;;;;;;5044568;28;20401;-79
2023/05/10 02:19:01;;;;;;;19.13;11.52;;;13.10;99.90;;;;;;5029292;28;20052;-79
2023/05/10 02:21:26;;;;;;;17.90;10.60;;;13.20;99.90;;;;;;5029826;28;20033;-79
2023/05/10 02:23:52;;;;;;;14.95;10.57;;;13.20;99.90;;;;;;5029849;28;20029;-80
2023/05/10 02:26:18;;;;;;;20.83;12.23;;;13.10;99.90;;;;;;5025797;28;20037;-79
2023/05/10 02:28:43;;;;;;;21.02;13.10;;;13.10;99.90;;;;;;5025604;28;20033;-80
2023/05/10 02:31:10;;;;;;;18.10;11.88;;;13.10;99.90;;;;;;5026872;28;20075;-80
2023/05/10 02:33:38;;;;;;;22.13;13.40;;;13.00;99.90;;;;;;5043864;28;20036;-80
2023/05/10 02:36:05;;;;;;;27.80;15.05;;;13.00;99.90;;;;;;5024625;28;20492;-80
2023/05/10 02:38:31;;;;;;;16.00;9.93;;;12.90;99.90;;;;;;5018097;28;20037;-80
2023/05/10 02:40:56;;;;;;;19.20;11.40;;;13.00;99.90;;;;;;5042016;28;20044;-79
2023/05/10 02:43:22;;;;;;;13.52;8.68;;;13.00;99.90;;;;;;5044998;28;20052;-79
2023/05/10 02:45:47;;;;;;;13.82;9.43;;;13.00;99.90;;;;;;5024896;28;20037;-80
2023/05/10 02:48:13;;;;;;;25.13;15.70;;;13.00;99.90;;;;;;5042874;28;20033;-80
2023/05/10 02:50:39;;;;;;;23.08;12.93;;;13.00;99.90;;;;;;5044094;28;20033;-80
2023/05/10 02:53:09;;;;;;;12.15;8.18;;;12.90;99.90;;;;;;5024136;28;20112;-80
2023/05/10 02:55:36;;;;;;;12.90;9.35;;;12.90;99.90;;;;;;5042861;28;20059;-80
2023/05/10 02:58:02;;;;;;;11.95;8.05;;;12.90;99.90;;;;;;5010169;28;20037;-80
2023/05/10 03:00:28;;;;;;;11.18;7.28;;;12.90;99.90;;;;;;5027899;28;20166;-80
2023/05/10 03:02:53;;;;;;;20.13;13.02;;;12.90;99.90;;;;;;5024831;28;20041;-80
2023/05/10 03:05:19;;;;;;;16.60;11.98;;;12.90;99.90;;;;;;5011349;28;20450;-80
2023/05/10 03:07:45;;;;;;;19.23;13.25;;;12.90;99.90;;;;;;5008414;28;20037;-80
2023/05/10 03:10:11;;;;;;;18.45;11.43;;;12.90;99.90;;;;;;5019494;28;20037;-80
2023/05/10 03:13:21;;;;;;;18.00;12.55;;;12.90;99.90;;;;;;5038596;28;20052;-80
2023/05/10 03:15:52;;;;;;;16.42;11.40;;;12.90;99.90;;;;;;5039289;28;20946;-80
2023/05/10 03:18:21;;;;;;;12.85;8.75;;;12.90;99.90;;;;;;5040862;28;20025;-81
2023/05/10 03:20:51;;;;;;;16.45;11.32;;;13.00;99.90;;;;;;5040358;28;20033;-80
2023/05/10 03:23:34;;;;;;;12.80;7.45;;;13.10;99.90;;;;;;5011449;28;20029;-81
2023/05/10 03:25:59;;;;;;;15.23;8.98;;;13.20;99.90;;;;;;5024291;28;20056;-81
2023/05/10 03:28:25;;;;;;;18.50;13.40;;;13.00;99.90;;;;;;5022706;28;20103;-81
2023/05/10 03:30:51;;;;;;;11.80;8.38;;;13.00;99.90;;;;;;5042262;28;20048;-81
2023/05/10 03:33:17;;;;;;;14.52;9.95;;;12.90;99.90;;;;;;5026931;28;20029;-81
2023/05/10 03:35:43;;;;;;;12.75;9.57;;;13.00;99.90;;;;;;5023502;28;20044;-80
2023/05/10 03:38:09;;;;;;;17.60;11.18;;;13.00;99.90;;;;;;5025350;28;20667;-81
2023/05/10 03:40:35;;;;;;;14.45;10.57;;;12.90;99.90;;;;;;5022221;28;20049;-81
2023/05/10 03:43:00;;;;;;;14.95;10.27;;;12.90;99.90;;;;;;5041224;28;20025;-81
2023/05/10 03:45:26;;;;;;;10.77;6.40;;;13.00;99.90;;;;;;5040150;28;20136;-80
2023/05/10 03:47:52;;;;;;;9.80;7.45;;;13.00;99.90;;;;;;5025807;28;20120;-81
2023/05/10 03:50:18;;;;;;;14.18;10.00;;;13.00;99.90;;;;;;5008212;28;20021;-81
2023/05/10 03:52:44;;;;;;;9.18;6.72;;;13.00;99.90;;;;;;5038865;28;20071;-81
2023/05/10 03:55:09;;;;;;;12.65;8.15;;;13.00;99.90;;;;;;5007718;28;20439;-81
2023/05/10 03:57:35;;;;;;;12.95;10.00;;;13.10;99.90;;;;;;5039134;28;20032;-81
2023/05/10 04:00:01;;;;;;;16.80;12.90;;;13.20;99.90;;;;;;5026143;28;20036;-81
2023/05/10 04:02:26;;;;;;;11.05;8.70;;;13.10;99.90;;;;;;5010009;28;20112;-82
2023/05/10 04:04:52;;;;;;;11.05;8.48;;;13.20;99.90;;;;;;5025005;28;20389;-82
2023/05/10 04:07:18;;;;;;;17.25;9.63;;;13.30;99.90;;;;;;5008643;28;20236;-82
2023/05/10 04:09:43;;;;;;;14.77;10.70;;;13.10;99.90;;;;;;5009770;28;20032;-82
2023/05/10 04:12:09;;;;;;;13.50;8.40;;;13.00;99.90;;;;;;5026247;28;20086;-81
2023/05/10 04:14:35;;;;;;;13.93;10.05;;;13.10;99.90;;;;;;5025668;28;20033;-81
2023/05/10 04:17:00;;;;;;;14.50;10.02;;;13.10;99.90;;;;;;5005080;28;20083;-82
2023/05/10 04:19:32;;;;;;;13.93;9.95;;;13.10;99.90;;;;;;5026707;28;20036;-81
2023/05/10 04:21:58;;;;;;;20.00;12.38;;;13.10;99.90;;;;;;5022838;28;20039;-81
2023/05/10 04:24:24;;;;;;;23.73;14.40;;;13.20;99.90;;;;;;5025190;28;20033;-81
2023/05/10 04:26:49;;;;;;;16.10;11.25;;;13.20;99.90;;;;;;5040641;28;20043;-81
2023/05/10 04:29:15;;;;;;;17.38;12.10;;;13.20;99.90;;;;;;5025867;28;20086;-81
2023/05/10 04:31:40;;;;;;;15.30;11.40;;;13.20;99.90;;;;;;5025306;28;20037;-81
2023/05/10 04:34:06;;;;;;;17.58;11.80;;;13.20;99.90;;;;;;5026481;28;20463;-81
2023/05/10 04:36:36;;;;;;;15.98;9.52;;;13.30;99.90;;;;;;5006752;28;20071;-81
2023/05/10 04:39:05;;;;;;;17.83;11.57;;;13.20;99.90;;;;;;5025419;28;20412;-81
2023/05/10 04:41:30;;;;;;;21.00;11.00;;;13.20;99.90;;;;;;5025539;28;20033;-81
2023/05/10 04:43:56;;;;;;;21.73;14.02;;;13.30;99.90;;;;;;5025709;28;20029;-82
2023/05/10 04:46:21;;;;;;;19.13;10.27;;;13.30;99.90;;;;;;5006724;28;20040;-83
2023/05/10 04:48:47;;;;;;;23.13;15.02;;;13.30;99.90;;;;;;5023562;28;20099;-81
2023/05/10 04:51:13;;;;;;;20.30;13.82;;;13.30;99.90;;;;;;5025577;28;20404;-82
2023/05/10 04:53:38;;;;;;;23.25;15.77;;;13.30;99.90;;;;;;5025685;28;20037;-82
2023/05/10 04:56:04;;;;;;;21.52;14.38;;;13.30;99.90;;;;;;5024874;28;20037;-82
2023/05/10 04:58:30;;;;;;;20.35;14.02;;;13.30;99.90;;;;;;5037991;28;20384;-82
2023/05/10 05:00:55;;;;;;;19.30;13.75;;;13.40;99.90;;;;;;5009530;28;20036;-83
2023/05/10 05:03:21;;;;;;;25.10;15.73;;;13.40;99.90;;;;;;5025916;28;20037;-82
2023/05/10 05:05:47;;;;;;;29.23;19.30;;;13.30;99.90;;;;;;5024778;28;20036;-82
2023/05/10 05:08:13;;;;;;;21.73;13.65;;;13.30;99.90;;;;;;5023259;28;20443;-82
2023/05/10 05:10:38;;;;;;;31.95;20.73;;;13.30;99.90;;;;;;5025341;28;20025;-82
2023/05/10 05:13:04;;;;;;;26.67;16.85;;;13.30;99.90;;;;;;5008433;28;20041;-83
2023/05/10 05:15:30;;;;;;;22.17;14.85;;;13.30;99.90;;;;;;5008479;28;20033;-82
2023/05/10 05:17:56;;;;;;;27.20;15.90;;;13.40;99.90;;;;;;5009396;28;20029;-83
2023/05/10 05:20:21;;;;;;;21.60;14.45;;;13.40;99.90;;;;;;5023950;28;20497;-83
2023/05/10 05:22:47;;;;;;;22.55;14.82;;;13.40;99.90;;;;;;5025351;28;20497;-83
2023/05/10 05:25:13;;;;;;;21.02;14.63;;;13.40;99.90;;;;;;5022343;28;20021;-82
2023/05/10 05:27:38;;;;;;;24.23;14.50;;;13.40;99.90;;;;;;5023911;28;20401;-82
2023/05/10 05:30:04;;;;;;;30.02;19.58;;;13.50;99.90;;;;;;5040001;28;20040;-83
2023/05/10 05:32:30;;;;;;;23.73;13.50;;;13.50;99.90;;;;;;5023055;28;20041;-83
2023/05/10 05:34:56;;;;;;;23.27;13.05;;;13.50;99.90;;;;;;5008593;28;20070;-83
2023/05/10 05:37:22;;;;;;;27.45;17.15;;;13.60;99.90;;;;;;5039138;28;20044;-83
2023/05/10 05:39:48;;;;;;;28.65;16.95;;;13.60;99.90;;;;;;5024546;28;20497;-82
2023/05/10 05:42:13;;;;;;;25.27;17.17;;;13.60;99.90;;;;;;5040766;28;20040;-82
2023/05/10 05:44:39;;;;;;;30.65;18.77;;;13.60;99.90;;;;;;5020932;28;20025;-83
2023/05/10 05:47:05;;;;;;;31.23;18.55;;;13.70;99.90;;;;;;5008684;28;20040;-83
2023/05/10 05:49:31;;;;;;;36.38;21.98;;;13.80;99.90;;;;;;5027502;28;20123;-85
2023/05/10 05:52:03;;;;;;;27.70;18.10;;;13.80;99.90;;;;;;5012370;28;20052;-83
2023/05/10 05:54:28;;;;;;;26.15;17.10;;;13.80;99.90;;;;;;5039360;28;20495;-82
2023/05/10 05:56:55;;;;;;;31.42;20.27;;;13.90;99.90;;;;;;5013555;28;20053;-83
2023/05/10 05:59:21;;;;;;;22.05;14.98;;;13.90;99.90;;;;;;5025961;28;20489;-84
2023/05/10 06:01:50;;;;;;;29.38;17.92;;;14.00;99.90;;;;;;5024067;28;20040;-84
2023/05/10 06:04:15;;;;;;;36.40;21.05;;;14.00;99.90;;;;;;5044796;28;20024;-83
2023/05/10 06:06:42;;;;;;;32.95;19.88;;;14.00;99.90;;;;;;5012134;28;20040;-83
2023/05/10 06:09:08;;;;;;;33.60;19.58;;;14.10;99.90;;;;;;5008792;28;20033;-83
2023/05/10 06:11:34;;;;;;;37.92;24.10;;;14.10;99.90;;;;;;5028740;28;20064;-83
2023/05/10 06:14:00;;;;;;;33.13;20.42;;;14.10;99.90;;;;;;5024256;28;20076;-82
2023/05/10 06:16:25;;;;;;;28.50;17.92;;;14.10;99.90;;;;;;5043319;28;20033;-83
2023/05/10 06:18:51;;;;;;;32.28;17.75;;;14.20;99.90;;;;;;5022644;28;20694;-83
2023/05/10 06:21:17;;;;;;;29.27;19.85;;;14.30;99.90;;;;;;5018161;28;20128;-82
2023/05/10 06:23:42;;;;;;;29.73;19.67;;;14.30;99.90;;;;;;5026159;28;20030;-83
2023/05/10 06:26:08;;;;;;;32.65;18.77;;;14.30;99.90;;;;;;5025712;28;20035;-83
2023/05/10 06:28:33;;;;;;;32.22;20.52;;;14.40;99.90;;;;;;5025957;28;20031;-80
2023/05/10 06:30:59;;;;;;;27.92;18.65;;;14.50;99.90;;;;;;5026173;28;20044;-82
2023/05/10 06:33:25;;;;;;;34.80;20.58;;;14.50;99.90;;;;;;5009017;28;20033;-83
2023/05/10 06:35:51;;;;;;;29.83;17.73;;;14.60;99.90;;;;;;5008659;28;20068;-84
2023/05/10 06:38:17;;;;;;;36.55;19.55;;;14.70;99.90;;;;;;5023014;28;20031;-83
2023/05/10 06:40:42;;;;;;;28.27;18.17;;;14.80;99.90;;;;;;5044857;28;20017;-83
2023/05/10 06:43:08;;;;;;;30.63;21.83;;;14.80;99.90;;;;;;5026784;28;20053;-83
2023/05/10 06:45:34;;;;;;;28.10;15.82;;;14.90;99.90;;;;;;5019716;28;20036;-83
2023/05/10 06:47:59;;;;;;;29.95;19.80;;;15.00;99.90;;;;;;5026416;28;20037;-82
2023/05/10 06:50:25;;;;;;;35.42;21.92;;;15.10;99.90;;;;;;5009737;28;20018;-83
2023/05/10 06:52:50;;;;;;;20.23;11.85;;;15.20;99.90;;;;;;5011393;28;20550;-82
2023/05/10 06:55:16;;;;;;;36.63;21.58;;;15.30;99.90;;;;;;5008236;28;20044;-84
2023/05/10 06:57:41;;;;;;;24.13;15.02;;;15.40;99.90;;;;;;5010240;28;20030;-83
2023/05/10 07:00:09;;;;;;;27.33;17.92;;;15.40;99.90;;;;;;5025521;28;20083;-84
2023/05/10 07:02:35;;;;;;;42.33;22.00;;;15.50;99.90;;;;;;5026181;28;20032;-84
2023/05/10 07:05:00;;;;;;;26.27;16.35;;;15.70;99.90;;;;;;5011718;28;20029;-83
2023/05/10 07:07:26;;;;;;;30.27;18.23;;;15.90;99.90;;;;;;5028664;28;20388;-84
2023/05/10 07:09:51;;;;;;;33.60;19.05;;;16.00;99.90;;;;;;5027603;28;20041;-84
2023/05/10 07:12:17;;;;;;;41.22;22.52;;;16.10;99.90;;;;;;5025921;28;20052;-84
2023/05/10 07:14:43;;;;;;;32.88;17.85;;;16.20;99.90;;;;;;5024924;28;20366;-84
2023/05/10 07:17:08;;;;;;;30.52;16.00;;;16.30;99.90;;;;;;5024680;28;20033;-84
2023/05/10 07:19:35;;;;;;;32.92;18.25;;;16.30;99.90;;;;;;5041033;28;20033;-84
2023/05/10 07:22:00;;;;;;;45.67;20.92;;;16.40;99.90;;;;;;5026469;28;20037;-84
2023/05/10 07:24:26;;;;;;;34.97;18.88;;;16.50;99.90;;;;;;5041810;28;20120;-84
2023/05/10 07:26:51;;;;;;;42.22;21.10;;;16.60;99.90;;;;;;5026286;28;20061;-84
2023/05/10 07:29:17;;;;;;;33.58;17.38;;;16.80;99.90;;;;;;5029130;28;20032;-84
2023/05/10 07:31:43;;;;;;;39.47;22.33;;;16.90;99.90;;;;;;5028255;28;20201;-84
2023/05/10 07:34:08;;;;;;;40.28;20.98;;;17.00;99.90;;;;;;5027116;28;20487;-85
2023/05/10 07:36:34;;;;;;;44.60;23.40;;;17.20;99.90;;;;;;5028148;28;20029;-84
2023/05/10 07:39:00;;;;;;;37.80;21.25;;;17.30;99.90;;;;;;5028763;28;20028;-83
2023/05/10 07:41:25;;;;;;;39.75;20.17;;;17.20;99.90;;;;;;5027670;28;20384;-84
2023/05/10 07:43:51;;;;;;;44.08;22.15;;;17.20;99.90;;;;;;5008810;28;20029;-84
2023/05/10 07:46:19;;;;;;;39.10;19.92;;;17.30;99.90;;;;;;5006658;28;20504;-84
2023/05/10 07:48:44;;;;;;;33.42;16.45;;;17.40;99.90;;;;;;5025589;28;20100;-84
2023/05/10 07:51:10;;;;;;;33.75;18.23;;;17.60;99.90;;;;;;5043431;28;20071;-84
2023/05/10 07:53:36;;;;;;;29.90;17.30;;;17.60;99.90;;;;;;5025767;28;20078;-83
2023/05/10 07:56:22;;;;;;;29.52;16.58;;;17.30;99.90;;;;;;5027790;28;20044;-84
2023/05/10 07:58:48;;;;;;;37.20;21.75;;;17.30;99.90;;;;;;5003763;28;20397;-83
2023/05/10 08:01:14;;;;;;;34.55;19.90;;;17.50;99.90;;;;;;5027094;28;20045;-84
2023/05/10 08:03:39;;;;;;;39.25;19.35;;;17.40;99.90;;;;;;5025733;28;20025;-84
2023/05/10 08:06:05;;;;;;;32.97;18.23;;;17.40;99.90;;;;;;5027799;28;20040;-84
2023/05/10 08:08:31;;;;;;;32.45;18.73;;;17.40;99.90;;;;;;5026688;28;20397;-84
2023/05/10 08:10:56;;;;;;;34.13;18.80;;;17.40;99.90;;;;;;5005871;28;20029;-84
2023/05/10 08:13:22;;;;;;;34.38;18.55;;;17.30;99.90;;;;;;5022173;28;20040;-84
2023/05/10 08:15:47;;;;;;;30.33;17.58;;;17.00;99.90;;;;;;5006992;28;20740;-83
2023/05/10 08:18:13;;;;;;;32.63;18.73;;;17.10;99.90;;;;;;5043265;28;20025;-83
2023/05/10 08:20:39;;;;;;;34.65;17.55;;;17.20;99.90;;;;;;5026690;28;20385;-83
2023/05/10 08:23:05;;;;;;;31.63;15.52;;;17.30;99.90;;;;;;5027792;28;21497;-84
2023/05/10 08:25:31;;;;;;;30.60;16.02;;;17.40;99.90;;;;;;5025999;28;20678;-84
2023/05/10 08:27:56;;;;;;;30.25;15.07;;;17.40;99.90;;;;;;5028347;28;20033;-86
2023/05/10 08:30:22;;;;;;;26.52;15.60;;;17.40;99.90;;;;;;5010018;28;20504;-85
2023/05/10 08:32:48;;;;;;;26.45;14.13;;;17.40;99.90;;;;;;5041815;28;20404;-86
2023/05/10 08:35:13;;;;;;;24.80;13.85;;;17.20;99.90;;;;;;5026721;28;20104;-85
2023/05/10 08:37:39;;;;;;;22.80;12.45;;;17.30;99.90;;;;;;5006675;28;20029;-84
2023/05/10 08:40:05;;;;;;;21.23;13.13;;;17.30;99.90;;;;;;5023104;28;20055;-84
2023/05/10 08:42:31;;;;;;;22.08;13.32;;;17.50;99.90;;;;;;5008309;28;20036;-85
2023/05/10 08:44:57;;;;;;;20.83;12.80;;;17.20;99.90;;;;;;5009111;28;20362;-83
2023/05/10 08:47:22;;;;;;;21.75;11.77;;;17.20;99.90;;;;;;5040210;28;20025;-84
2023/05/10 08:49:51;;;;;;;19.50;11.32;;;17.70;99.90;;;;;;5041119;28;20039;-80
2023/05/10 08:52:16;;;;;;;20.30;12.00;;;17.90;99.90;;;;;;5024149;28;20056;-82
2023/05/10 08:54:42;;;;;;;20.05;10.68;;;18.20;99.90;;;;;;5024467;28;20037;-82
2023/05/10 08:57:08;;;;;;;20.33;12.13;;;18.10;99.90;;;;;;5040354;28;20102;-81
2023/05/10 08:59:33;;;;;;;20.35;12.50;;;18.20;99.90;;;;;;5030015;28;20028;-81
2023/05/10 09:01:59;;;;;;;20.27;13.23;;;18.30;99.90;;;;;;5022708;28;20098;-82
2023/05/10 09:04:25;;;;;;;19.45;10.70;;;18.40;99.90;;;;;;5039226;28;20036;-81
2023/05/10 09:06:51;;;;;;;18.90;11.75;;;19.20;99.90;;;;;;5008755;28;20040;-81
2023/05/10 09:09:17;;;;;;;21.08;11.65;;;19.60;99.90;;;;;;5024938;28;20536;-81
2023/05/10 09:11:44;;;;;;;20.83;10.60;;;19.90;99.90;;;;;;5039822;28;20151;-81
2023/05/10 09:14:10;;;;;;;18.55;12.05;;;19.80;99.90;;;;;;5009019;28;20577;-80
2023/05/10 09:16:35;;;;;;;19.27;11.30;;;19.80;99.90;;;;;;5038253;28;20108;-80
2023/05/10 09:19:01;;;;;;;19.08;10.85;;;20.00;99.90;;;;;;5042031;28;20516;-80
2023/05/10 09:21:27;;;;;;;17.98;8.63;;;20.10;99.90;;;;;;5014750;28;20036;-80
2023/05/10 09:23:54;;;;;;;16.15;10.20;;;20.20;99.90;;;;;;5007782;28;20037;-81
2023/05/10 09:26:23;;;;;;;18.58;11.02;;;20.20;99.90;;;;;;5025203;28;20037;-81
2023/05/10 09:28:55;;;;;;;21.33;10.00;;;20.10;99.90;;;;;;5025447;28;20598;-80
2023/05/10 09:31:21;;;;;;;23.70;12.90;;;19.90;99.90;;;;;;5044559;28;20041;-80
2023/05/10 09:33:47;;;;;;;18.35;10.60;;;20.20;99.90;;;;;;5026966;28;20036;-80
2023/05/10 09:36:13;;;;;;;20.67;11.95;;;20.50;99.90;;;;;;5028525;28;20472;-80
2023/05/10 09:38:52;;;;;;;23.58;12.38;;;20.60;99.90;;;;;;5028612;28;20029;-80
2023/05/10 09:41:19;;;;;;;23.60;13.60;;;20.50;99.90;;;;;;5024350;28;20496;-79
2023/05/10 09:43:44;;;;;;;25.05;14.10;;;20.40;99.90;;;;;;5042613;28;20214;-79
2023/05/10 09:46:11;;;;;;;26.60;15.38;;;20.10;99.90;;;;;;5027289;28;20473;-79
2023/05/10 09:48:43;;;;;;;25.70;9.02;;;20.70;99.90;;;;;;5028616;28;20029;-79
2023/05/10 09:51:09;;;;;;;31.55;15.50;;;20.70;99.90;;;;;;5029542;28;20481;-79
2023/05/10 09:53:34;;;;;;;27.30;13.23;;;20.60;99.90;;;;;;5040663;28;20029;-79
2023/05/10 09:56:00;;;;;;;18.52;9.60;;;20.90;99.90;;;;;;5046139;28;20450;-79
2023/05/10 09:58:25;;;;;;;22.02;11.65;;;20.90;99.90;;;;;;5027917;28;20044;-81
2023/05/10 10:00:52;;;;;;;17.55;10.45;;;20.80;99.90;;;;;;5011209;28;20037;-80
2023/05/10 10:03:18;;;;;;;18.95;11.05;;;20.70;99.90;;;;;;5028288;28;20528;-80
2023/05/10 10:05:44;;;;;;;22.95;13.80;;;20.60;99.90;;;;;;5008897;28;20119;-81
2023/05/10 10:08:10;;;;;;;24.65;14.93;;;20.60;99.90;;;;;;5046132;28;20441;-81
2023/05/10 10:10:36;;;;;;;24.02;13.98;;;20.90;99.90;;;;;;5040459;28;20033;-80
2023/05/10 10:13:01;;;;;;;28.27;13.57;;;20.90;99.90;;;;;;5011095;28;20040;-80
2023/05/10 10:15:27;;;;;;;22.05;13.63;;;20.90;99.90;;;;;;5028160;28;20041;-81
2023/05/10 10:17:53;;;;;;;20.92;12.65;;;20.80;99.90;;;;;;5013746;28;20033;-81
2023/05/10 10:20:19;;;;;;;21.73;12.48;;;21.00;99.90;;;;;;5030182;28;20036;-81
2023/05/10 10:22:45;;;;;;;24.52;13.90;;;21.20;99.90;;;;;;5043484;28;20519;-81
2023/05/10 10:25:12;;;;;;;19.75;10.98;;;21.40;99.90;;;;;;5027356;28;20025;-81
2023/05/10 10:27:52;;;;;;;20.17;11.40;;;21.40;99.90;;;;;;5027215;28;20036;-80
2023/05/10 10:30:28;;;;;;;15.10;9.25;;;21.50;99.90;;;;;;5035490;28;20065;-80
2023/05/10 10:33:23;;;;;;;20.30;11.93;;;21.10;99.90;;;;;;5042729;28;20075;-82
2023/05/10 10:35:49;;;;;;;17.48;11.63;;;21.60;99.90;;;;;;5042697;28;20033;-80
2023/05/10 10:38:22;;;;;;;17.33;10.30;;;21.80;99.90;;;;;;4883699;28;10000705;-80
2023/05/10 10:40:48;;;;;;;20.77;11.75;;;21.90;99.90;;;;;;4676013;28;10000170;-80
2023/05/10 10:43:26;;;;;;;17.50;11.13;;;21.30;99.90;;;;;;5010037;28;20037;-81
2023/05/10 10:46:14;;;;;;;21.23;11.77;;;21.50;99.90;;;;;;5040401;28;20044;-82
2023/05/10 10:48:51;;;;;;;20.23;11.88;;;21.90;99.90;;;;;;5033358;28;20045;-81
2023/05/10 10:51:16;;;;;;;16.73;11.60;;;22.20;99.90;;;;;;5025272;28;20029;-81
2023/05/10 10:53:42;;;;;;;12.65;8.32;;;22.30;99.90;;;;;;5022133;28;20087;-80
2023/05/10 10:56:13;;;;;;;16.20;10.25;;;22.30;99.90;;;;;;5024280;28;20041;-80
2023/05/10 10:58:39;;;;;;;14.60;10.95;;;22.10;99.90;;;;;;5025403;28;20029;-80
2023/05/10 11:01:15;;;;;;;14.75;10.43;;;22.20;99.90;;;;;;5008178;28;20041;-80
2023/05/10 11:03:41;;;;;;;15.80;11.07;;;22.10;99.90;;;;;;5024239;28;20098;-80
2023/05/10 11:06:08;;;;;;;15.63;10.00;;;22.10;99.90;;;;;;5023374;28;20034;-80
2023/05/10 11:08:34;;;;;;;17.88;11.45;;;21.70;99.90;;;;;;5038527;28;20039;-80
2023/05/10 11:11:00;;;;;;;15.50;9.32;;;21.80;99.90;;;;;;5031454;28;20041;-80
2023/05/10 11:13:33;;;;;;;14.02;10.23;;;21.80;99.90;;;;;;5041517;28;20044;-80
2023/05/10 11:15:59;;;;;;;16.23;10.13;;;21.80;99.90;;;;;;5025124;28;20481;-80
2023/05/10 11:18:29;;;;;;;14.10;9.43;;;21.90;99.90;;;;;;5040519;28;20029;-80
2023/05/10 11:21:05;;;;;;;15.70;10.23;;;21.80;99.90;;;;;;5026158;28;20461;-80
2023/05/10 11:23:39;;;;;;;19.35;10.02;;;21.90;99.90;;;;;;5038489;28;20120;-80
2023/05/10 11:26:09;;;;;;;10.23;5.90;;;22.10;99.90;;;;;;5042480;28;21502;-79
2023/05/10 11:28:34;;;;;;;15.63;10.23;;;22.00;99.90;;;;;;5026271;28;20063;-80
2023/05/10 11:31:00;;;;;;;17.10;9.13;;;22.10;99.90;;;;;;5044408;28;20718;-80
2023/05/10 11:33:25;;;;;;;14.52;8.68;;;22.30;99.90;;;;;;5022701;28;20433;-80
2023/05/10 11:35:51;;;;;;;9.63;6.80;;;22.30;99.90;;;;;;5042664;28;20453;-80
2023/05/10 11:38:17;;;;;;;13.30;8.70;;;22.60;99.90;;;;;;5002714;28;20568;-79
2023/05/10 11:40:42;;;;;;;14.75;6.97;;;22.80;99.90;;;;;;5040495;28;20061;-80
2023/05/10 11:43:09;;;;;;;16.95;9.25;;;22.80;99.90;;;;;;5008810;28;20507;-80
2023/05/10 11:45:35;;;;;;;15.98;8.98;;;22.50;99.90;;;;;;5037579;28;20487;-80
2023/05/10 11:48:00;;;;;;;20.42;12.95;;;22.70;99.90;;;;;;5026434;28;20049;-80
2023/05/10 11:50:26;;;;;;;10.02;6.95;;;22.20;99.90;;;;;;5026996;28;20021;-81
2023/05/10 11:52:55;;;;;;;15.65;10.38;;;21.90;99.90;;;;;;5008309;28;20037;-81
2023/05/10 11:55:21;;;;;;;18.70;11.85;;;21.40;99.90;;;;;;5007287;28;20361;-81
2023/05/10 11:57:47;;;;;;;13.35;10.35;;;21.10;99.90;;;;;;5022819;28;20021;-81
2023/05/10 12:00:13;;;;;;;19.65;11.88;;;20.90;99.90;;;;;;5024791;28;20515;-81
2023/05/10 12:02:39;;;;;;;13.15;9.27;;;20.70;99.90;;;;;;5024109;28;20104;-80
2023/05/10 12:05:05;;;;;;;15.43;12.10;;;20.50;99.90;;;;;;5025001;28;20136;-81
2023/05/10 12:07:31;;;;;;;19.08;12.68;;;20.60;99.90;;;;;;5009483;28;20477;-80
2023/05/10 12:10:17;;;;;;;14.85;9.60;;;20.70;99.90;;;;;;5024990;28;20115;-80
2023/05/10 12:12:47;;;;;;;15.38;8.43;;;20.70;99.90;;;;;;5009236;28;20124;-80
2023/05/10 12:15:16;;;;;;;11.48;7.22;;;20.90;99.90;;;;;;5025322;28;20171;-80
2023/05/10 12:17:43;;;;;;;13.60;9.75;;;20.90;99.90;;;;;;5037439;28;20044;-80
2023/05/10 12:20:22;;;;;;;16.63;9.38;;;21.10;99.90;;;;;;5042470;28;20033;-80
2023/05/10 12:22:52;;;;;;;14.13;9.07;;;21.10;99.90;;;;;;5024391;28;20032;-80
2023/05/10 12:25:21;;;;;;;14.50;10.52;;;21.30;99.90;;;;;;5025469;28;20024;-80
2023/05/10 12:27:53;;;;;;;11.38;8.10;;;21.40;99.90;;;;;;5025603;28;20029;-80
2023/05/10 12:30:21;;;;;;;13.45;9.50;;;21.60;99.90;;;;;;5038805;28;20052;-80